createdAt,value
2024-04-10T00:00:16.656Z,402.392302
2024-04-10T00:05:17.083Z,357.820118
2024-04-10T00:10:17.122Z,371.167883
2024-04-10T00:15:17.272Z,352.603356
2024-04-10T00:20:16.209Z,334.148074
2024-04-10T00:25:17.211Z,336.107651
2024-04-10T00:30:16.482Z,191.683330
2024-04-10T00:35:17.869Z,181.590130
2024-04-10T00:40:16.320Z,156.824392
2024-04-10T00:45:16.668Z,112.024042
2024-04-10T00:50:16.414Z,89.571621
2024-04-10T00:55:16.602Z,87.112379
2024-04-10T01:00:16.054Z,92.866340
2024-04-10T01:05:16.590Z,88.092427
2024-04-10T01:10:16.799Z,78.062299
2024-04-10T01:15:16.559Z,70.680129
2024-04-10T01:20:16.276Z,63.245467
2024-04-10T01:25:16.604Z,57.189846
2024-04-10T01:30:16.832Z,55.564013
2024-04-10T01:35:16.708Z,49.404201
2024-04-10T01:40:16.532Z,41.989208
2024-04-10T01:45:17.133Z,38.449589
2024-04-10T01:50:17.024Z,33.018909
2024-04-10T01:55:16.583Z,25.778527
2024-04-10T02:00:16.887Z,19.797499
2024-04-10T02:05:16.673Z,16.621600
2024-04-10T02:10:16.331Z,11.827340
2024-04-10T02:15:16.395Z,7.794656
2024-04-10T02:20:16.725Z,4.332896
2024-04-10T02:25:16.620Z,2.728987
2024-04-10T02:30:17.340Z,1.548847
2024-04-10T02:35:18.915Z,0.495311
2024-04-10T02:40:17.278Z,0.082115
2024-04-10T02:45:16.974Z,0.009048
2024-04-10T02:50:17.347Z,0.000000
2024-04-10T02:55:17.029Z,0.000000
2024-04-10T03:00:17.315Z,0.000000
2024-04-10T03:05:16.845Z,0.000000
2024-04-10T03:10:17.296Z,0.000000
2024-04-10T03:15:16.347Z,0.000000
2024-04-10T03:20:16.737Z,0.000000
2024-04-10T03:25:16.747Z,0.000000
2024-04-10T03:30:16.945Z,0.000000
2024-04-10T03:35:16.380Z,0.000000
2024-04-10T03:40:16.458Z,0.000000
2024-04-10T03:45:17.034Z,0.000000
2024-04-10T03:50:19.167Z,0.000000
2024-04-10T03:55:17.325Z,0.000000
2024-04-10T04:00:17.017Z,0.000000
2024-04-10T04:05:16.733Z,0.000000
2024-04-10T04:10:16.564Z,0.000000
2024-04-10T04:15:17.428Z,0.000000
2024-04-10T04:20:16.438Z,0.000000
2024-04-10T04:25:16.734Z,0.000000
2024-04-10T04:30:16.282Z,0.000000
2024-04-10T04:35:21.311Z,0.000000
2024-04-10T04:40:16.832Z,0.000000
2024-04-10T04:45:16.841Z,0.000000
2024-04-10T04:50:16.697Z,0.000000
2024-04-10T04:55:16.771Z,0.000000
2024-04-10T05:00:16.753Z,0.000000
2024-04-10T05:05:16.425Z,0.000000
2024-04-10T05:10:16.605Z,0.000000
2024-04-10T05:15:17.113Z,0.000000
2024-04-10T05:20:18.531Z,0.000000
2024-04-10T05:25:16.503Z,0.000000
2024-04-10T05:30:17.441Z,0.000000
2024-04-10T05:35:16.799Z,0.000000
2024-04-10T05:40:16.517Z,0.000000
2024-04-10T05:45:17.220Z,0.000000
2024-04-10T05:50:16.694Z,0.000000
2024-04-10T05:55:17.376Z,0.000000
2024-04-10T06:00:16.190Z,0.000000
2024-04-10T06:05:16.155Z,0.000000
2024-04-10T06:10:16.318Z,0.000000
2024-04-10T06:15:16.661Z,0.000000
2024-04-10T06:20:17.275Z,0.000000
2024-04-10T06:25:17.320Z,0.000000
2024-04-10T06:30:16.918Z,0.000000
2024-04-10T06:35:16.614Z,0.000000
2024-04-10T06:40:16.696Z,0.000000
2024-04-10T06:45:17.595Z,0.000000
2024-04-10T06:50:17.231Z,0.000000
2024-04-10T06:55:17.354Z,0.000000
2024-04-10T07:00:16.418Z,0.000000
2024-04-10T07:05:16.672Z,0.000000
2024-04-10T07:10:16.406Z,0.000000
2024-04-10T07:15:17.175Z,0.000000
2024-04-10T07:20:17.252Z,0.000000
2024-04-10T07:25:18.060Z,0.000000
2024-04-10T07:30:17.022Z,0.000000
2024-04-10T07:35:16.269Z,0.000000
2024-04-10T07:40:16.337Z,0.000000
2024-04-10T07:45:17.167Z,0.000000
2024-04-10T07:50:17.015Z,0.000000
2024-04-10T07:55:16.134Z,0.000000
2024-04-10T08:00:17.181Z,0.000000
2024-04-10T08:05:17.096Z,0.000000
2024-04-10T08:10:16.599Z,0.000000
2024-04-10T08:15:17.107Z,0.000000
2024-04-10T08:20:17.409Z,0.000000
2024-04-10T08:25:17.187Z,0.000000
2024-04-10T08:30:16.304Z,0.000000
2024-04-10T08:35:16.667Z,0.000000
2024-04-10T08:40:16.583Z,0.000000
2024-04-10T08:45:18.039Z,0.000000
2024-04-10T08:50:16.844Z,0.000000
2024-04-10T08:55:16.609Z,0.000000
2024-04-10T09:00:16.984Z,0.000000
2024-04-10T09:05:18.308Z,0.000000
2024-04-10T09:10:17.122Z,0.000000
2024-04-10T09:15:16.426Z,0.000000
2024-04-10T09:20:16.896Z,0.000000
2024-04-10T09:25:16.720Z,0.000000
2024-04-10T09:30:16.782Z,0.000000
2024-04-10T09:35:16.747Z,0.000000
2024-04-10T09:40:16.592Z,0.000000
2024-04-10T09:45:16.589Z,0.000000
2024-04-10T09:50:16.438Z,0.000000
2024-04-10T09:55:16.894Z,0.000000
2024-04-10T10:00:16.760Z,0.000000
2024-04-10T10:05:16.504Z,0.000000
2024-04-10T10:10:16.825Z,0.000000
2024-04-10T10:15:16.257Z,0.000000
2024-04-10T10:20:16.482Z,0.000000
2024-04-10T10:25:16.311Z,0.000000
2024-04-10T10:30:16.534Z,0.000000
2024-04-10T10:35:19.744Z,0.000000
2024-04-10T10:40:16.875Z,0.000000
2024-04-10T10:45:16.485Z,0.000000
2024-04-10T10:50:16.634Z,0.000000
2024-04-10T10:55:16.392Z,0.000000
2024-04-10T11:00:16.504Z,0.000000
2024-04-10T11:05:22.030Z,0.000000
2024-04-10T11:10:16.524Z,0.000000
2024-04-10T11:15:17.448Z,0.000000
2024-04-10T11:20:16.656Z,0.000000
2024-04-10T11:25:16.969Z,0.000000
2024-04-10T11:30:22.391Z,0.000000
2024-04-10T11:35:16.297Z,0.000000
2024-04-10T11:40:16.412Z,0.000000
2024-04-10T11:45:16.926Z,0.000000
2024-04-10T11:50:17.238Z,0.000000
2024-04-10T11:55:16.715Z,0.000000
2024-04-10T12:00:17.210Z,0.000000
2024-04-10T12:05:16.782Z,0.000000
2024-04-10T12:10:16.694Z,0.000000
2024-04-10T12:15:16.418Z,0.000000
2024-04-10T12:20:16.931Z,0.000000
2024-04-10T12:25:17.848Z,0.000000
2024-04-10T12:30:16.863Z,0.000000
2024-04-10T12:35:17.074Z,0.000000
2024-04-10T12:40:16.538Z,0.000000
2024-04-10T12:45:16.996Z,0.000000
2024-04-10T12:50:16.859Z,0.000000
2024-04-10T12:55:16.267Z,0.000000
2024-04-10T13:00:16.434Z,0.000000
2024-04-10T13:05:17.718Z,0.000000
2024-04-10T13:10:16.365Z,0.000000
2024-04-10T13:15:17.780Z,0.000000
2024-04-10T13:20:16.871Z,0.000000
2024-04-10T13:25:16.374Z,0.000000
2024-04-10T13:30:17.199Z,0.004492
2024-04-10T13:35:17.112Z,0.181598
2024-04-10T13:40:16.846Z,1.295567
2024-04-10T13:45:17.334Z,3.594730
2024-04-10T13:50:17.079Z,6.257319
2024-04-10T13:55:16.870Z,10.824303
2024-04-10T14:00:16.974Z,16.006965
2024-04-10T14:05:16.350Z,20.578760
2024-04-10T14:10:16.540Z,25.232986
2024-04-10T14:15:17.278Z,31.359584
2024-04-10T14:20:16.568Z,37.987428
2024-04-10T14:25:16.682Z,43.213266
2024-04-10T14:30:16.241Z,47.728883
2024-04-10T14:35:16.593Z,54.181528
2024-04-10T14:40:17.197Z,60.285770
2024-04-10T14:45:16.360Z,65.767711
2024-04-10T14:50:16.275Z,73.623540
2024-04-10T14:55:16.428Z,83.554009
2024-04-10T15:00:16.949Z,95.212639
2024-04-10T15:05:17.550Z,104.045972
2024-04-10T15:10:16.403Z,114.936544
2024-04-10T15:15:16.760Z,130.860055
2024-04-10T15:20:16.852Z,146.573794
2024-04-10T15:25:16.637Z,148.972624
2024-04-10T15:30:17.138Z,150.333848
2024-04-10T15:35:16.341Z,168.379852
2024-04-10T15:40:16.988Z,183.208271
2024-04-10T15:45:16.620Z,184.255359
2024-04-10T15:50:17.183Z,190.824623
2024-04-10T15:55:16.671Z,235.584191
2024-04-10T16:00:16.675Z,254.690286
2024-04-10T16:05:16.513Z,230.127825
2024-04-10T16:10:17.100Z,231.914242
2024-04-10T16:15:16.514Z,255.617904
2024-04-10T16:20:16.635Z,296.773127
2024-04-10T16:25:16.340Z,303.949529
2024-04-10T16:30:17.064Z,315.340070
2024-04-10T16:35:16.477Z,372.481995
2024-04-10T16:40:16.276Z,385.575188
2024-04-10T16:45:16.714Z,371.243344
2024-04-10T16:50:16.806Z,334.485819
2024-04-10T16:55:16.520Z,359.973607
2024-04-10T17:00:17.035Z,398.440441
2024-04-10T17:05:17.118Z,412.943512
2024-04-10T17:10:16.701Z,417.504327
2024-04-10T17:15:16.860Z,463.338339
2024-04-10T17:20:16.829Z,476.297920
2024-04-10T17:25:17.354Z,490.367259
2024-04-10T17:30:17.325Z,496.920005
2024-04-10T17:35:16.556Z,528.607800
2024-04-10T17:40:16.751Z,551.884495
2024-04-10T17:45:17.678Z,574.227085
2024-04-10T17:50:17.746Z,533.578002
2024-04-10T17:55:17.714Z,589.619717
2024-04-10T18:00:16.618Z,600.298396
2024-04-10T18:05:16.592Z,613.666927
2024-04-10T18:10:16.656Z,610.129017
2024-04-10T18:15:16.883Z,609.869215
2024-04-10T18:20:16.465Z,608.818484
2024-04-10T18:25:16.554Z,623.943622
2024-04-10T18:30:16.611Z,626.400708
2024-04-10T18:35:17.160Z,640.266553
2024-04-10T18:40:17.471Z,644.648492
2024-04-10T18:45:18.968Z,651.257641
2024-04-10T18:50:16.918Z,682.291352
2024-04-10T18:55:16.594Z,688.647251
2024-04-10T19:00:16.331Z,702.134352
2024-04-10T19:05:16.833Z,696.557595
2024-04-10T19:10:16.127Z,674.659243
2024-04-10T19:15:16.477Z,690.645970
2024-04-10T19:20:16.739Z,721.423770
2024-04-10T19:25:16.683Z,716.083676
2024-04-10T19:30:17.028Z,717.374020
2024-04-10T19:35:16.773Z,720.263902
2024-04-10T19:40:16.490Z,723.132450
2024-04-10T19:45:17.498Z,705.253425
2024-04-10T19:50:17.054Z,717.953682
2024-04-10T19:55:16.959Z,734.829143
2024-04-10T20:00:16.621Z,759.841181
2024-04-10T20:05:17.055Z,740.910976
2024-04-10T20:10:16.794Z,745.500189
2024-04-10T20:15:16.305Z,758.284387
2024-04-10T20:20:16.564Z,748.963139
2024-04-10T20:25:16.376Z,723.412038
2024-04-10T20:30:16.526Z,707.229867
2024-04-10T20:35:17.354Z,728.259916
2024-04-10T20:40:16.506Z,744.383053
2024-04-10T20:45:16.335Z,729.147398
2024-04-10T20:50:16.333Z,738.753082
2024-04-10T20:55:18.306Z,721.559258
2024-04-10T21:00:16.743Z,697.781125
2024-04-10T21:05:16.435Z,676.269110
2024-04-10T21:10:16.574Z,699.833872
2024-04-10T21:15:16.789Z,732.222250
2024-04-10T21:20:16.439Z,723.321582
2024-04-10T21:25:17.164Z,676.441210
2024-04-10T21:30:16.488Z,669.854619
2024-04-10T21:35:16.433Z,683.703779
2024-04-10T21:40:16.642Z,660.513446
2024-04-10T21:45:16.686Z,596.204441
2024-04-10T21:50:16.295Z,532.396718
2024-04-10T21:55:16.223Z,536.142311
2024-04-10T22:00:37.045Z,505.865190
2024-04-10T22:05:17.513Z,478.386576
2024-04-10T22:10:16.255Z,486.702644
2024-04-10T22:15:16.401Z,474.537905
2024-04-10T22:20:16.796Z,453.420991
2024-04-10T22:25:16.614Z,456.796079
2024-04-10T22:30:16.431Z,480.817019
2024-04-10T22:35:18.491Z,467.603849
2024-04-10T22:40:16.346Z,440.011504
2024-04-10T22:45:16.420Z,404.003468
2024-04-10T22:50:17.139Z,360.600678
2024-04-10T22:55:16.521Z,339.665105
2024-04-10T23:00:16.273Z,323.702295
2024-04-10T23:05:31.367Z,292.674830
2024-04-10T23:10:16.322Z,291.240605
2024-04-10T23:15:17.572Z,278.634334
2024-04-10T23:20:16.899Z,270.370760
2024-04-10T23:25:18.129Z,252.910433
2024-04-10T23:30:16.416Z,244.301982
2024-04-10T23:35:16.358Z,253.233512
2024-04-10T23:40:17.545Z,271.191097
2024-04-10T23:45:16.236Z,281.788257
2024-04-10T23:50:17.142Z,255.231010
2024-04-10T23:55:17.881Z,210.359719
